createdAt,value
2017-11-23T00:01:05.993Z,5.03
2017-11-23T00:03:32.575Z,4.90
2017-11-23T00:05:59.163Z,5.60
2017-11-23T00:08:25.754Z,4.80
2017-11-23T00:10:52.324Z,4.90
2017-11-23T00:13:18.914Z,4.90
2017-11-23T00:15:45.496Z,4.90
2017-11-23T00:18:12.096Z,5.47
2017-11-23T00:20:38.678Z,4.80
2017-11-23T00:23:05.268Z,4.50
2017-11-23T00:25:31.852Z,4.70
2017-11-23T00:27:58.434Z,4.70
2017-11-23T00:30:25.026Z,4.80
2017-11-23T00:32:51.612Z,4.90
2017-11-23T00:35:18.213Z,5.00
2017-11-23T00:37:44.804Z,4.50
2017-11-23T00:40:11.390Z,4.87
2017-11-23T00:42:37.979Z,5.00
2017-11-23T00:45:04.564Z,5.30
2017-11-23T00:47:31.166Z,4.40
2017-11-23T00:49:57.743Z,4.80
2017-11-23T00:52:24.327Z,4.67
2017-11-23T00:54:50.920Z,4.70
2017-11-23T00:57:17.499Z,5.00
2017-11-23T00:59:44.099Z,4.83
2017-11-23T01:02:10.681Z,4.53
2017-11-23T01:04:37.268Z,4.40
2017-11-23T01:07:03.860Z,4.50
2017-11-23T01:09:30.449Z,4.80
2017-11-23T01:11:57.032Z,4.60
2017-11-23T01:14:23.618Z,4.40
2017-11-23T01:16:50.195Z,4.53
2017-11-23T01:19:16.783Z,4.40
2017-11-23T01:21:43.362Z,4.70
2017-11-23T01:24:09.959Z,5.00
2017-11-23T01:26:36.540Z,4.73
2017-11-23T01:29:03.136Z,4.37
2017-11-23T01:31:29.729Z,4.60
2017-11-23T01:33:56.320Z,4.83
2017-11-23T01:36:22.914Z,4.57
2017-11-23T01:38:49.504Z,4.40
2017-11-23T01:41:16.095Z,4.40
2017-11-23T01:43:42.683Z,4.70
2017-11-23T01:46:09.275Z,4.20
2017-11-23T01:48:35.865Z,4.83
2017-11-23T01:51:02.447Z,4.23
2017-11-23T01:53:29.032Z,4.40
2017-11-23T01:55:55.619Z,4.97
2017-11-23T01:58:22.208Z,4.27
2017-11-23T02:00:48.852Z,4.37
2017-11-23T02:03:15.433Z,4.47
2017-11-23T02:05:42.015Z,4.83
2017-11-23T02:08:08.604Z,4.53
2017-11-23T02:10:35.186Z,4.80
2017-11-23T02:13:01.783Z,4.50
2017-11-23T02:15:28.364Z,4.40
2017-11-23T02:17:54.956Z,4.43
2017-11-23T02:20:21.546Z,4.20
2017-11-23T02:22:48.131Z,4.57
2017-11-23T02:25:14.730Z,4.30
2017-11-23T02:27:41.307Z,4.70
2017-11-23T02:30:07.896Z,4.20
2017-11-23T02:32:34.480Z,4.40
2017-11-23T02:35:01.068Z,4.60
2017-11-23T02:37:27.659Z,4.53
2017-11-23T02:39:54.248Z,4.17
2017-11-23T02:42:20.832Z,4.57
2017-11-23T02:44:47.413Z,4.20
2017-11-23T02:47:14.004Z,4.37
2017-11-23T02:49:40.582Z,4.50
2017-11-23T02:52:07.164Z,4.30
2017-11-23T02:54:33.766Z,4.63
2017-11-23T02:57:00.348Z,4.20
2017-11-23T02:59:26.932Z,4.00
2017-11-23T03:01:53.528Z,4.37
2017-11-23T03:04:20.120Z,4.30
2017-11-23T03:06:46.704Z,4.43
2017-11-23T03:09:13.295Z,5.13
2017-11-23T03:11:39.883Z,4.63
2017-11-23T03:14:06.472Z,4.10
2017-11-23T03:16:33.048Z,4.27
2017-11-23T03:18:59.635Z,4.40
2017-11-23T03:21:26.223Z,4.80
2017-11-23T03:23:52.812Z,4.40
2017-11-23T03:26:19.421Z,4.37
2017-11-23T03:28:46.769Z,4.50
2017-11-23T03:31:13.344Z,4.37
2017-11-23T03:33:39.935Z,3.97
2017-11-23T03:36:06.530Z,4.27
2017-11-23T03:38:33.120Z,4.20
2017-11-23T03:40:59.694Z,4.70
2017-11-23T03:43:26.295Z,4.37
2017-11-23T03:45:52.872Z,4.80
2017-11-23T03:48:19.477Z,4.20
2017-11-23T03:50:46.064Z,4.50
2017-11-23T03:53:12.648Z,4.80
2017-11-23T03:55:39.227Z,5.03
2017-11-23T03:58:05.816Z,4.43
2017-11-23T04:00:32.404Z,4.73
2017-11-23T04:02:58.999Z,4.90
2017-11-23T04:05:25.584Z,4.90
2017-11-23T04:07:52.166Z,4.70
2017-11-23T04:10:18.768Z,4.50
2017-11-23T04:12:45.347Z,4.80
2017-11-23T04:15:11.947Z,5.10
2017-11-23T04:17:38.537Z,5.00
2017-11-23T04:20:05.127Z,5.07
2017-11-23T04:22:31.715Z,4.57
2017-11-23T04:24:58.300Z,4.63
2017-11-23T04:27:24.885Z,4.83
2017-11-23T04:29:51.506Z,4.60
2017-11-23T04:32:18.071Z,4.80
2017-11-23T04:34:44.660Z,4.83
2017-11-23T04:37:11.241Z,4.80
2017-11-23T04:39:37.852Z,5.07
2017-11-23T04:42:04.433Z,4.60
2017-11-23T04:44:31.009Z,5.00
2017-11-23T04:46:57.595Z,5.17
2017-11-23T04:49:24.215Z,5.03
2017-11-23T04:51:50.807Z,4.60
2017-11-23T04:54:17.388Z,5.10
2017-11-23T04:56:43.969Z,5.20
2017-11-23T04:59:10.559Z,4.83
2017-11-23T05:01:37.146Z,5.57
2017-11-23T05:04:03.748Z,5.33
2017-11-23T05:06:30.341Z,4.83
2017-11-23T05:08:56.923Z,5.03
2017-11-23T05:11:23.506Z,5.43
2017-11-23T05:13:50.099Z,5.40
2017-11-23T05:16:16.696Z,5.23
2017-11-23T05:18:43.275Z,5.30
2017-11-23T05:21:09.864Z,5.00
2017-11-23T05:23:36.479Z,5.63
2017-11-23T05:26:03.062Z,5.60
2017-11-23T05:28:29.667Z,5.03
2017-11-23T05:30:56.247Z,5.10
2017-11-23T05:33:22.835Z,5.27
2017-11-23T05:35:49.427Z,5.50
2017-11-23T05:38:16.025Z,5.20
2017-11-23T05:40:42.640Z,5.40
2017-11-23T05:43:09.218Z,5.50
2017-11-23T05:45:35.803Z,5.43
2017-11-23T05:48:02.397Z,5.33
2017-11-23T05:50:28.973Z,5.40
2017-11-23T05:52:55.569Z,5.33
2017-11-23T05:55:22.156Z,5.30
2017-11-23T05:57:48.763Z,5.07
2017-11-23T06:00:15.367Z,5.70
2017-11-23T06:02:41.999Z,5.47
2017-11-23T06:05:08.596Z,5.23
2017-11-23T06:07:35.175Z,5.70
2017-11-23T06:10:01.768Z,5.53
2017-11-23T06:12:28.359Z,5.27
2017-11-23T06:14:54.942Z,5.07
2017-11-23T06:17:21.533Z,5.37
2017-11-23T06:19:48.115Z,5.50
2017-11-23T06:22:14.696Z,6.00
2017-11-23T06:24:41.289Z,5.43
2017-11-23T06:27:07.862Z,5.90
2017-11-23T06:29:34.456Z,5.67
2017-11-23T06:32:01.031Z,5.87
2017-11-23T06:34:27.612Z,5.57
2017-11-23T06:36:54.191Z,5.80
2017-11-23T06:39:20.778Z,5.70
2017-11-23T06:41:47.378Z,5.30
2017-11-23T06:44:13.956Z,5.70
2017-11-23T06:46:40.535Z,5.50
2017-11-23T06:49:07.122Z,5.70
2017-11-23T06:51:33.700Z,5.70
2017-11-23T06:54:00.303Z,5.20
2017-11-23T06:56:26.880Z,5.93
2017-11-23T06:58:53.459Z,5.30
2017-11-23T07:01:20.738Z,6.30
2017-11-23T07:03:47.326Z,6.20
2017-11-23T07:06:13.915Z,5.90
2017-11-23T07:08:40.514Z,5.47
2017-11-23T07:11:07.095Z,5.50
2017-11-23T07:13:33.674Z,5.10
2017-11-23T07:16:00.359Z,6.00
2017-11-23T07:18:26.932Z,6.07
2017-11-23T07:20:54.168Z,5.50
2017-11-23T07:23:20.839Z,6.10
2017-11-23T07:25:47.411Z,5.63
2017-11-23T07:28:18.887Z,6.10
2017-11-23T07:30:45.471Z,5.80
2017-11-23T07:33:12.047Z,5.23
2017-11-23T07:35:39.331Z,5.33
2017-11-23T07:38:08.415Z,5.17
2017-11-23T07:40:35.005Z,5.80
2017-11-23T07:43:01.595Z,5.93
2017-11-23T07:45:28.177Z,5.60
2017-11-23T07:47:54.885Z,5.53
2017-11-23T07:50:21.538Z,5.80
2017-11-23T07:52:49.679Z,5.80
2017-11-23T07:55:16.266Z,5.70
2017-11-23T07:57:42.890Z,6.03
2017-11-23T08:00:09.478Z,5.37
2017-11-23T08:02:36.054Z,5.80
2017-11-23T08:05:02.632Z,5.40
2017-11-23T08:07:29.214Z,6.00
2017-11-23T08:09:55.799Z,5.73
2017-11-23T08:12:22.459Z,6.07
2017-11-23T08:14:49.036Z,6.53
2017-11-23T08:17:15.608Z,5.50
2017-11-23T08:19:42.205Z,5.60
2017-11-23T08:22:08.774Z,5.30
2017-11-23T08:24:35.368Z,6.30
2017-11-23T08:27:01.948Z,5.13
2017-11-23T08:29:28.519Z,5.77
2017-11-23T08:31:55.111Z,5.60
2017-11-23T08:34:21.778Z,5.60
2017-11-23T08:36:48.379Z,6.33
2017-11-23T08:39:14.947Z,5.73
2017-11-23T08:41:41.532Z,5.63
2017-11-23T08:44:08.119Z,5.80
2017-11-23T08:46:34.704Z,5.57
2017-11-23T08:49:01.291Z,5.67
2017-11-23T08:51:27.875Z,5.40
2017-11-23T08:53:54.446Z,5.70
2017-11-23T08:56:21.063Z,5.90
2017-11-23T08:58:47.639Z,6.23
2017-11-23T09:01:17.887Z,5.90
2017-11-23T09:03:44.479Z,6.37
2017-11-23T09:06:11.059Z,5.47
2017-11-23T09:08:37.651Z,5.60
2017-11-23T09:11:04.247Z,5.93
2017-11-23T09:13:30.843Z,5.70
2017-11-23T09:15:57.429Z,5.67
2017-11-23T09:18:24.015Z,5.43
2017-11-23T09:20:50.608Z,5.93
2017-11-23T09:23:17.179Z,5.27
2017-11-23T09:25:43.768Z,5.10
2017-11-23T09:28:10.354Z,5.17
2017-11-23T09:30:36.968Z,5.37
2017-11-23T09:33:03.537Z,5.33
2017-11-23T09:35:30.121Z,5.20
2017-11-23T09:37:56.795Z,5.13
2017-11-23T09:40:23.406Z,5.43
2017-11-23T09:42:50.005Z,5.10
2017-11-23T09:45:16.567Z,5.40
2017-11-23T09:47:43.151Z,5.00
2017-11-23T09:50:09.739Z,5.27
2017-11-23T09:52:36.311Z,5.17
2017-11-23T09:55:02.900Z,5.03
2017-11-23T09:57:29.478Z,5.27
2017-11-23T09:59:56.070Z,4.93
2017-11-23T10:02:22.661Z,5.37
2017-11-23T10:04:49.239Z,4.87
2017-11-23T10:07:16.758Z,5.23
2017-11-23T10:09:43.327Z,4.70
2017-11-23T10:12:09.910Z,4.93
2017-11-23T10:14:42.286Z,4.57
2017-11-23T10:17:09.052Z,5.20
2017-11-23T10:19:35.642Z,4.77
2017-11-23T10:22:04.666Z,4.87
2017-11-23T10:24:31.247Z,4.90
2017-11-23T10:26:57.839Z,5.37
2017-11-23T10:29:24.418Z,4.77
2017-11-23T10:31:51.038Z,4.63
2017-11-23T10:34:17.691Z,5.00
2017-11-23T10:36:44.279Z,4.77
2017-11-23T10:39:11.765Z,4.87
2017-11-23T10:41:38.443Z,4.40
2017-11-23T10:44:05.027Z,5.00
2017-11-23T10:46:31.612Z,4.97
2017-11-23T10:48:58.187Z,4.70
2017-11-23T10:51:24.774Z,4.27
2017-11-23T10:53:51.401Z,4.57
2017-11-23T10:56:17.979Z,4.83
2017-11-23T10:58:44.551Z,4.70
2017-11-23T11:01:11.144Z,4.73
2017-11-23T11:03:37.723Z,4.70
2017-11-23T11:06:04.311Z,4.70
2017-11-23T11:08:30.898Z,4.50
2017-11-23T11:10:57.491Z,4.67
2017-11-23T11:13:24.071Z,4.27
2017-11-23T11:15:50.785Z,4.40
2017-11-23T11:18:17.559Z,4.70
2017-11-23T11:20:44.281Z,4.67
2017-11-23T11:23:10.947Z,4.47
2017-11-23T11:25:37.527Z,4.57
2017-11-23T11:28:04.109Z,4.60
2017-11-23T11:30:30.703Z,4.87
2017-11-23T11:32:57.277Z,4.23
2017-11-23T11:35:23.896Z,4.80
2017-11-23T11:37:50.475Z,5.37
2017-11-23T11:40:17.074Z,4.67
2017-11-23T11:42:43.667Z,4.50
2017-11-23T11:45:10.250Z,4.30
2017-11-23T11:47:36.844Z,4.17
2017-11-23T11:50:03.435Z,4.90
2017-11-23T11:52:30.011Z,4.57
2017-11-23T11:54:56.595Z,4.53
2017-11-23T11:57:23.189Z,4.27
2017-11-23T11:59:49.793Z,4.43
2017-11-23T12:02:16.368Z,4.43
2017-11-23T12:04:42.967Z,5.00
2017-11-23T12:07:09.548Z,4.30
2017-11-23T12:09:36.128Z,4.60
2017-11-23T12:12:02.715Z,4.90
2017-11-23T12:14:29.291Z,4.77
2017-11-23T12:17:10.764Z,4.47
2017-11-23T12:19:43.143Z,4.73
2017-11-23T12:22:15.550Z,4.50
2017-11-23T12:24:48.152Z,4.70
2017-11-23T12:27:14.804Z,4.20
2017-11-23T12:29:47.141Z,4.33
2017-11-23T12:32:13.724Z,4.40
2017-11-23T12:34:40.309Z,4.60
2017-11-23T12:37:07.731Z,4.23
2017-11-23T12:39:34.312Z,4.43
2017-11-23T12:42:00.911Z,4.20
2017-11-23T12:44:27.499Z,4.23
2017-11-23T12:46:54.080Z,4.67
2017-11-23T12:49:20.672Z,4.60
2017-11-23T12:51:47.252Z,4.43
2017-11-23T12:54:13.849Z,4.63
2017-11-23T12:56:40.430Z,4.70
2017-11-23T12:59:07.039Z,4.13
2017-11-23T13:01:33.627Z,4.37
2017-11-23T13:04:00.206Z,4.83
2017-11-23T13:06:26.796Z,4.37
2017-11-23T13:08:53.432Z,4.43
2017-11-23T13:11:19.999Z,4.20
2017-11-23T13:13:46.591Z,4.30
2017-11-23T13:16:13.184Z,3.90
2017-11-23T13:18:39.767Z,4.03
2017-11-23T13:21:06.347Z,4.40
2017-11-23T13:23:32.935Z,4.23
2017-11-23T13:25:59.516Z,4.17
2017-11-23T13:28:26.100Z,3.93
2017-11-23T13:30:52.687Z,3.83
2017-11-23T13:33:19.263Z,4.23
2017-11-23T13:35:45.854Z,3.80
2017-11-23T13:38:12.428Z,4.10
2017-11-23T13:40:39.019Z,4.30
2017-11-23T13:43:05.600Z,3.90
2017-11-23T13:45:32.190Z,4.20
2017-11-23T13:47:58.787Z,4.30
2017-11-23T13:50:25.384Z,3.53
2017-11-23T13:52:51.979Z,4.23
2017-11-23T13:55:18.565Z,3.97
2017-11-23T13:57:45.139Z,3.90
2017-11-23T14:00:11.727Z,4.43
2017-11-23T14:02:38.307Z,3.73
2017-11-23T14:05:04.895Z,4.17
2017-11-23T14:07:31.476Z,4.13
2017-11-23T14:09:58.076Z,4.00
2017-11-23T14:12:24.659Z,4.17
2017-11-23T14:14:51.235Z,3.90
2017-11-23T14:17:17.829Z,3.77
2017-11-23T14:19:44.409Z,4.10
2017-11-23T14:22:10.991Z,4.10
2017-11-23T14:24:37.568Z,3.80
2017-11-23T14:27:04.171Z,3.60
2017-11-23T14:29:30.749Z,3.80
2017-11-23T14:31:57.327Z,3.60
2017-11-23T14:34:23.924Z,4.33
2017-11-23T14:36:50.508Z,3.43
2017-11-23T14:39:17.086Z,3.90
2017-11-23T14:41:43.663Z,3.50
2017-11-23T14:44:10.272Z,3.60
2017-11-23T14:46:36.865Z,4.03
2017-11-23T14:49:03.431Z,3.30
2017-11-23T14:51:30.016Z,3.87
2017-11-23T14:53:56.605Z,4.00
2017-11-23T14:56:23.195Z,3.53
2017-11-23T14:58:49.781Z,3.60
2017-11-23T15:01:16.484Z,4.10
2017-11-23T15:03:43.161Z,3.73
2017-11-23T15:06:09.727Z,3.57
2017-11-23T15:08:36.320Z,3.70
2017-11-23T15:11:02.899Z,3.60
2017-11-23T15:13:29.498Z,3.50
2017-11-23T15:15:56.183Z,3.60
2017-11-23T15:18:22.776Z,3.40
2017-11-23T15:20:49.354Z,3.77
2017-11-23T15:23:15.936Z,3.60
2017-11-23T15:25:42.526Z,4.00
2017-11-23T15:28:09.114Z,3.28
2017-11-23T15:30:35.704Z,3.10
2017-11-23T15:33:02.283Z,3.33
2017-11-23T15:35:28.880Z,3.13
2017-11-23T15:37:55.479Z,3.50
2017-11-23T15:40:22.060Z,3.20
2017-11-23T15:42:48.660Z,2.80
2017-11-23T15:45:15.235Z,3.10
2017-11-23T15:47:41.832Z,3.73
2017-11-23T15:50:08.411Z,3.00
2017-11-23T15:52:35.034Z,3.23
2017-11-23T15:55:01.615Z,3.03
2017-11-23T15:57:28.223Z,3.43
2017-11-23T15:59:54.811Z,3.30
2017-11-23T16:02:21.388Z,3.00
2017-11-23T16:04:47.971Z,3.20
2017-11-23T16:07:14.551Z,3.00
2017-11-23T16:09:41.156Z,3.00
2017-11-23T16:12:07.741Z,2.90
2017-11-23T16:14:35.284Z,3.50
2017-11-23T16:17:01.870Z,3.17
2017-11-23T16:19:28.451Z,3.47
2017-11-23T16:21:55.041Z,3.10
2017-11-23T16:24:21.616Z,3.13
2017-11-23T16:26:48.223Z,3.00
2017-11-23T16:29:14.828Z,3.30
2017-11-23T16:31:41.420Z,3.20
2017-11-23T16:34:08.007Z,3.10
2017-11-23T16:36:34.587Z,3.00
2017-11-23T16:39:04.127Z,3.13
2017-11-23T16:41:34.195Z,3.00
2017-11-23T16:44:17.328Z,3.47
2017-11-23T16:46:58.787Z,3.33
2017-11-23T16:49:31.023Z,3.00
2017-11-23T16:52:14.380Z,3.30
2017-11-23T16:54:46.617Z,3.93
2017-11-23T16:57:19.140Z,2.87
2017-11-23T16:59:47.340Z,3.10
2017-11-23T17:02:19.794Z,2.60
2017-11-23T17:04:52.167Z,3.20
2017-11-23T17:07:35.443Z,2.70
2017-11-23T17:10:07.723Z,2.87
2017-11-23T17:12:40.143Z,3.00
2017-11-23T17:15:12.393Z,3.10
2017-11-23T17:17:58.643Z,3.07
2017-11-23T17:20:25.239Z,2.60
2017-11-23T17:22:51.827Z,3.10
2017-11-23T17:25:18.407Z,3.17
2017-11-23T17:27:45.003Z,2.90
2017-11-23T17:30:11.599Z,2.93
2017-11-23T17:32:38.197Z,3.40
2017-11-23T17:35:04.776Z,2.97
2017-11-23T17:37:31.375Z,3.27
2017-11-23T17:39:57.956Z,3.07
2017-11-23T17:42:24.532Z,3.47
2017-11-23T17:44:51.120Z,2.87
2017-11-23T17:47:17.704Z,3.20
2017-11-23T17:49:44.295Z,3.23
2017-11-23T17:52:10.881Z,2.60
2017-11-23T17:54:37.472Z,3.17
2017-11-23T17:57:04.052Z,3.00
2017-11-23T17:59:30.632Z,3.23
2017-11-23T18:01:57.215Z,3.70
2017-11-23T18:04:23.809Z,2.70
2017-11-23T18:06:50.422Z,2.93
2017-11-23T18:09:17.006Z,3.10
2017-11-23T18:11:43.598Z,3.27
2017-11-23T18:14:10.176Z,3.00
2017-11-23T18:16:36.775Z,3.33
2017-11-23T18:19:03.351Z,3.13
2017-11-23T18:21:29.931Z,3.47
2017-11-23T18:23:56.519Z,3.30
2017-11-23T18:26:23.099Z,2.80
2017-11-23T18:28:49.696Z,3.10
2017-11-23T18:31:16.279Z,3.20
2017-11-23T18:33:42.858Z,2.70
2017-11-23T18:36:09.543Z,3.17
2017-11-23T18:38:36.107Z,3.00
2017-11-23T18:41:02.695Z,3.07
2017-11-23T18:43:29.272Z,2.87
2017-11-23T18:45:55.872Z,3.00
2017-11-23T18:48:22.445Z,2.90
2017-11-23T18:50:49.033Z,3.10
2017-11-23T18:53:15.620Z,3.17
2017-11-23T18:55:42.208Z,3.50
2017-11-23T18:58:08.791Z,3.00
2017-11-23T19:00:35.390Z,3.23
2017-11-23T19:03:01.960Z,2.80
2017-11-23T19:05:28.551Z,3.10
2017-11-23T19:07:55.140Z,3.40
2017-11-23T19:10:21.773Z,3.53
2017-11-23T19:12:48.356Z,3.03
2017-11-23T19:15:14.963Z,2.80
2017-11-23T19:17:41.548Z,3.20
2017-11-23T19:20:08.131Z,3.10
2017-11-23T19:22:34.714Z,3.40
2017-11-23T19:25:01.323Z,2.70
2017-11-23T19:27:27.948Z,3.10
2017-11-23T19:29:54.524Z,3.10
2017-11-23T19:32:21.123Z,3.20
2017-11-23T19:34:47.704Z,2.90
2017-11-23T19:37:14.283Z,2.90
2017-11-23T19:39:40.871Z,3.10
2017-11-23T19:42:07.454Z,2.73
2017-11-23T19:44:34.058Z,2.77
2017-11-23T19:47:00.634Z,3.07
2017-11-23T19:49:27.253Z,2.70
2017-11-23T19:51:53.828Z,2.70
2017-11-23T19:54:20.407Z,2.90
2017-11-23T19:56:47.007Z,3.10
2017-11-23T19:59:13.595Z,2.60
2017-11-23T20:01:40.192Z,3.03
2017-11-23T20:04:06.776Z,2.90
2017-11-23T20:06:33.377Z,2.90
2017-11-23T20:08:59.956Z,2.67
2017-11-23T20:11:26.540Z,2.77
2017-11-23T20:13:53.144Z,2.90
2017-11-23T20:16:19.748Z,3.07
2017-11-23T20:18:46.939Z,3.10
2017-11-23T20:21:13.508Z,2.80
2017-11-23T20:23:40.120Z,2.90
2017-11-23T20:26:06.708Z,2.83
2017-11-23T20:28:33.291Z,2.80
2017-11-23T20:30:59.902Z,2.67
2017-11-23T20:33:26.487Z,2.97
2017-11-23T20:35:53.098Z,2.93
2017-11-23T20:38:19.694Z,2.80
2017-11-23T20:40:46.279Z,3.03
2017-11-23T20:43:12.880Z,2.70
2017-11-23T20:45:39.475Z,2.90
2017-11-23T20:48:06.061Z,3.07
2017-11-23T20:50:32.635Z,3.10
2017-11-23T20:52:59.223Z,3.23
2017-11-23T20:55:25.815Z,3.23
2017-11-23T20:57:52.394Z,3.17
2017-11-23T21:00:19.047Z,2.80
2017-11-23T21:02:45.612Z,2.90
2017-11-23T21:05:12.198Z,2.87
2017-11-23T21:07:38.780Z,2.83
2017-11-23T21:10:05.380Z,2.77
2017-11-23T21:12:31.992Z,3.03
2017-11-23T21:14:58.572Z,3.00
2017-11-23T21:17:25.192Z,2.93
2017-11-23T21:19:51.776Z,2.73
2017-11-23T21:22:18.356Z,3.33
2017-11-23T21:24:44.947Z,2.67
2017-11-23T21:27:11.547Z,2.83
2017-11-23T21:29:38.144Z,2.80
2017-11-23T21:32:04.765Z,3.03
2017-11-23T21:34:31.352Z,2.83
2017-11-23T21:36:57.943Z,3.23
2017-11-23T21:39:24.527Z,3.43
2017-11-23T21:41:51.116Z,3.67
2017-11-23T21:44:17.701Z,3.33
2017-11-23T21:46:44.384Z,3.30
2017-11-23T21:49:10.958Z,3.20
2017-11-23T21:51:37.559Z,3.67
2017-11-23T21:54:04.140Z,3.37
2017-11-23T21:56:30.722Z,3.30
2017-11-23T21:58:57.311Z,3.27
2017-11-23T22:01:23.897Z,2.90
2017-11-23T22:03:50.485Z,3.20
2017-11-23T22:06:17.063Z,3.40
2017-11-23T22:08:43.659Z,3.87
2017-11-23T22:11:10.236Z,3.40
2017-11-23T22:13:36.819Z,3.63
2017-11-23T22:16:03.399Z,3.30
2017-11-23T22:18:29.979Z,3.20
2017-11-23T22:20:56.571Z,3.43
2017-11-23T22:23:23.151Z,3.23
2017-11-23T22:25:49.763Z,3.27
2017-11-23T22:28:16.353Z,3.37
2017-11-23T22:30:42.934Z,3.70
2017-11-23T22:33:09.524Z,3.23
2017-11-23T22:35:36.103Z,3.53
2017-11-23T22:38:02.688Z,3.43
2017-11-23T22:40:29.278Z,3.53
2017-11-23T22:42:55.860Z,3.40
2017-11-23T22:45:22.459Z,3.50
2017-11-23T22:47:49.039Z,3.40
2017-11-23T22:50:15.625Z,3.10
2017-11-23T22:52:42.208Z,3.47
2017-11-23T22:55:08.800Z,3.20
2017-11-23T22:57:35.411Z,3.40
2017-11-23T23:00:01.995Z,3.40
2017-11-23T23:02:28.572Z,3.20
2017-11-23T23:04:55.167Z,3.50
2017-11-23T23:07:21.752Z,3.53
2017-11-23T23:09:48.335Z,3.70
2017-11-23T23:12:14.923Z,3.77
2017-11-23T23:14:41.500Z,3.70
2017-11-23T23:17:08.087Z,3.40
2017-11-23T23:19:34.658Z,3.70
2017-11-23T23:22:01.248Z,3.27
2017-11-23T23:24:27.826Z,3.07
2017-11-23T23:26:54.418Z,3.70
2017-11-23T23:29:21.008Z,3.90
2017-11-23T23:31:47.690Z,3.40
2017-11-23T23:34:14.254Z,3.13
2017-11-23T23:36:40.833Z,3.10
2017-11-23T23:39:07.424Z,2.80
2017-11-23T23:41:34.010Z,3.20
2017-11-23T23:44:00.595Z,3.10
2017-11-23T23:46:27.179Z,3.07
2017-11-23T23:48:53.762Z,3.50
2017-11-23T23:51:20.397Z,3.30
2017-11-23T23:53:46.969Z,3.40
2017-11-23T23:56:13.555Z,3.43
2017-11-23T23:58:40.135Z,3.60
